Kawasaki, Japan
Current Conditions -  °F | °C
As of 5:26 AM on Tuesday 27 Jan 2015 (Local Time) from RJTT Reporting Station
Rain Showers Rain Showers  
Wind Chill:   Ceiling: 1400
Heat Index:   Visibility: 2.3mi
Dew Point:   Wind: 14mph
Humidity: 93%   Direction: 350°N
Pressure: 29.83"   Gusts: NA
Location:  35.53°N, 139.7°E
Report Text: RJTT 262026Z 35012KT 3800 SHRA BR FEW008 BKN014 08/07 Q1010 RMK 1ST008 7CU014 A2983
Loading
Personal Weather Stations






























Interactive Weather Map New forecast layout! Learn more

10-Day Weather Forecast

Advertisements
Track Severe Weather on mobile